sensor_id;sensor_type;location;lat;lon;timestamp;P1;durP1;ratioP1;P2;durP2;ratioP2
35290;SDS011;21411;50.024;19.220;2023-01-23T00:01:05;37.30;;;26.30;;
35290;SDS011;21411;50.024;19.220;2023-01-23T00:03:37;37.60;;;24.30;;
35290;SDS011;21411;50.024;19.220;2023-01-23T00:06:09;37.50;;;25.80;;
35290;SDS011;21411;50.024;19.220;2023-01-23T00:08:38;35.50;;;25.70;;
35290;SDS011;21411;50.024;19.220;2023-01-23T00:11:08;39.00;;;25.60;;
35290;SDS011;21411;50.024;19.220;2023-01-23T00:13:38;38.30;;;26.40;;
35290;SDS011;21411;50.024;19.220;2023-01-23T00:16:05;35.50;;;24.90;;
35290;SDS011;21411;50.024;19.220;2023-01-23T00:18:37;40.60;;;27.00;;
35290;SDS011;21411;50.024;19.220;2023-01-23T00:21:06;38.00;;;26.00;;
35290;SDS011;21411;50.024;19.220;2023-01-23T00:23:45;42.20;;;27.20;;
35290;SDS011;21411;50.024;19.220;2023-01-23T00:26:16;37.20;;;25.60;;
35290;SDS011;21411;50.024;19.220;2023-01-23T00:28:47;38.20;;;26.40;;
35290;SDS011;21411;50.024;19.220;2023-01-23T00:31:23;40.10;;;27.30;;
35290;SDS011;21411;50.024;19.220;2023-01-23T00:33:52;36.50;;;26.40;;
35290;SDS011;21411;50.024;19.220;2023-01-23T00:36:21;39.60;;;27.80;;
35290;SDS011;21411;50.024;19.220;2023-01-23T00:38:48;38.60;;;28.50;;
35290;SDS011;21411;50.024;19.220;2023-01-23T00:41:18;40.40;;;26.70;;
35290;SDS011;21411;50.024;19.220;2023-01-23T00:43:44;38.20;;;26.50;;
35290;SDS011;21411;50.024;19.220;2023-01-23T00:46:13;37.40;;;26.20;;
35290;SDS011;21411;50.024;19.220;2023-01-23T00:48:40;41.50;;;27.30;;
35290;SDS011;21411;50.024;19.220;2023-01-23T00:51:06;36.50;;;24.90;;
35290;SDS011;21411;50.024;19.220;2023-01-23T00:53:33;41.10;;;25.60;;
35290;SDS011;21411;50.024;19.220;2023-01-23T00:56:00;37.20;;;24.50;;
35290;SDS011;21411;50.024;19.220;2023-01-23T00:58:27;36.50;;;24.80;;
35290;SDS011;21411;50.024;19.220;2023-01-23T01:00:54;40.30;;;26.10;;
35290;SDS011;21411;50.024;19.220;2023-01-23T01:03:21;35.10;;;24.00;;
35290;SDS011;21411;50.024;19.220;2023-01-23T01:05:50;34.40;;;24.70;;
35290;SDS011;21411;50.024;19.220;2023-01-23T01:08:18;36.10;;;25.20;;
35290;SDS011;21411;50.024;19.220;2023-01-23T01:10:44;35.60;;;24.80;;
35290;SDS011;21411;50.024;19.220;2023-01-23T01:13:11;41.20;;;26.60;;
35290;SDS011;21411;50.024;19.220;2023-01-23T01:15:38;39.50;;;25.50;;
35290;SDS011;21411;50.024;19.220;2023-01-23T01:18:05;41.10;;;26.90;;
35290;SDS011;21411;50.024;19.220;2023-01-23T01:20:32;39.30;;;26.30;;
35290;SDS011;21411;50.024;19.220;2023-01-23T01:22:58;36.90;;;25.80;;
35290;SDS011;21411;50.024;19.220;2023-01-23T01:25:25;42.40;;;28.10;;
35290;SDS011;21411;50.024;19.220;2023-01-23T01:27:53;40.10;;;28.00;;
35290;SDS011;21411;50.024;19.220;2023-01-23T01:30:21;39.20;;;27.40;;
35290;SDS011;21411;50.024;19.220;2023-01-23T01:32:48;37.10;;;26.40;;
35290;SDS011;21411;50.024;19.220;2023-01-23T01:35:15;41.30;;;28.50;;
35290;SDS011;21411;50.024;19.220;2023-01-23T01:37:42;47.30;;;32.60;;
35290;SDS011;21411;50.024;19.220;2023-01-23T01:40:11;38.70;;;28.60;;
35290;SDS011;21411;50.024;19.220;2023-01-23T01:42:46;45.20;;;29.30;;
35290;SDS011;21411;50.024;19.220;2023-01-23T01:48:20;44.40;;;29.70;;
35290;SDS011;21411;50.024;19.220;2023-01-23T01:50:50;46.30;;;29.50;;
35290;SDS011;21411;50.024;19.220;2023-01-23T01:53:18;41.00;;;25.70;;
35290;SDS011;21411;50.024;19.220;2023-01-23T01:55:46;43.00;;;28.10;;
35290;SDS011;21411;50.024;19.220;2023-01-23T01:58:14;38.50;;;25.60;;
35290;SDS011;21411;50.024;19.220;2023-01-23T02:00:41;37.00;;;25.10;;
35290;SDS011;21411;50.024;19.220;2023-01-23T02:03:08;35.00;;;24.40;;
35290;SDS011;21411;50.024;19.220;2023-01-23T02:05:38;37.20;;;24.30;;
35290;SDS011;21411;50.024;19.220;2023-01-23T02:08:09;35.90;;;25.30;;
35290;SDS011;21411;50.024;19.220;2023-01-23T02:10:44;39.10;;;26.20;;
35290;SDS011;21411;50.024;19.220;2023-01-23T02:13:24;41.70;;;26.90;;
35290;SDS011;21411;50.024;19.220;2023-01-23T02:15:58;37.60;;;25.30;;
35290;SDS011;21411;50.024;19.220;2023-01-23T02:18:27;39.60;;;25.30;;
35290;SDS011;21411;50.024;19.220;2023-01-23T02:20:57;40.10;;;25.60;;
35290;SDS011;21411;50.024;19.220;2023-01-23T02:26:00;37.10;;;24.90;;
35290;SDS011;21411;50.024;19.220;2023-01-23T02:28:44;42.60;;;27.10;;
35290;SDS011;21411;50.024;19.220;2023-01-23T02:31:13;45.00;;;27.30;;
35290;SDS011;21411;50.024;19.220;2023-01-23T02:33:58;38.30;;;25.40;;
35290;SDS011;21411;50.024;19.220;2023-01-23T02:36:30;38.70;;;25.50;;
35290;SDS011;21411;50.024;19.220;2023-01-23T02:41:27;39.90;;;27.40;;
35290;SDS011;21411;50.024;19.220;2023-01-23T02:46:25;39.40;;;25.60;;
35290;SDS011;21411;50.024;19.220;2023-01-23T02:48:52;39.00;;;26.80;;
35290;SDS011;21411;50.024;19.220;2023-01-23T02:51:19;36.60;;;27.10;;
35290;SDS011;21411;50.024;19.220;2023-01-23T02:53:47;41.90;;;25.80;;
35290;SDS011;21411;50.024;19.220;2023-01-23T02:56:15;40.50;;;27.00;;
35290;SDS011;21411;50.024;19.220;2023-01-23T02:58:43;42.10;;;27.50;;
35290;SDS011;21411;50.024;19.220;2023-01-23T03:01:28;39.80;;;26.30;;
35290;SDS011;21411;50.024;19.220;2023-01-23T03:03:56;40.10;;;26.50;;
35290;SDS011;21411;50.024;19.220;2023-01-23T03:06:23;42.20;;;27.20;;
35290;SDS011;21411;50.024;19.220;2023-01-23T03:08:49;35.00;;;24.80;;
35290;SDS011;21411;50.024;19.220;2023-01-23T03:11:17;34.20;;;24.50;;
35290;SDS011;21411;50.024;19.220;2023-01-23T03:13:45;35.80;;;25.10;;
35290;SDS011;21411;50.024;19.220;2023-01-23T03:16:12;48.60;;;32.50;;
35290;SDS011;21411;50.024;19.220;2023-01-23T03:18:40;49.40;;;31.10;;
35290;SDS011;21411;50.024;19.220;2023-01-23T03:21:07;40.10;;;27.30;;
35290;SDS011;21411;50.024;19.220;2023-01-23T03:23:33;48.90;;;32.50;;
35290;SDS011;21411;50.024;19.220;2023-01-23T03:26:01;46.70;;;33.70;;
35290;SDS011;21411;50.024;19.220;2023-01-23T03:28:28;46.30;;;30.70;;
35290;SDS011;21411;50.024;19.220;2023-01-23T03:31:14;44.10;;;29.30;;
35290;SDS011;21411;50.024;19.220;2023-01-23T03:33:40;42.80;;;27.80;;
35290;SDS011;21411;50.024;19.220;2023-01-23T03:36:09;49.20;;;31.20;;
35290;SDS011;21411;50.024;19.220;2023-01-23T03:38:37;46.60;;;31.10;;
35290;SDS011;21411;50.024;19.220;2023-01-23T03:41:04;50.50;;;32.90;;
35290;SDS011;21411;50.024;19.220;2023-01-23T03:43:49;44.70;;;31.20;;
35290;SDS011;21411;50.024;19.220;2023-01-23T03:46:16;43.80;;;32.50;;
35290;SDS011;21411;50.024;19.220;2023-01-23T03:48:43;46.70;;;30.90;;
35290;SDS011;21411;50.024;19.220;2023-01-23T03:51:09;47.50;;;31.10;;
35290;SDS011;21411;50.024;19.220;2023-01-23T03:53:36;42.80;;;30.00;;
35290;SDS011;21411;50.024;19.220;2023-01-23T03:56:04;44.70;;;28.60;;
35290;SDS011;21411;50.024;19.220;2023-01-23T03:58:31;48.20;;;30.70;;
35290;SDS011;21411;50.024;19.220;2023-01-23T04:00:58;47.70;;;31.20;;
35290;SDS011;21411;50.024;19.220;2023-01-23T04:03:29;52.60;;;33.50;;
35290;SDS011;21411;50.024;19.220;2023-01-23T04:05:56;55.90;;;34.40;;
35290;SDS011;21411;50.024;19.220;2023-01-23T04:08:24;51.60;;;33.80;;
35290;SDS011;21411;50.024;19.220;2023-01-23T04:10:51;59.40;;;35.50;;
35290;SDS011;21411;50.024;19.220;2023-01-23T04:13:26;61.80;;;37.90;;
35290;SDS011;21411;50.024;19.220;2023-01-23T04:15:52;68.00;;;39.20;;
35290;SDS011;21411;50.024;19.220;2023-01-23T04:18:19;60.30;;;35.50;;
35290;SDS011;21411;50.024;19.220;2023-01-23T04:20:46;60.20;;;36.90;;
35290;SDS011;21411;50.024;19.220;2023-01-23T04:23:12;63.90;;;39.00;;
35290;SDS011;21411;50.024;19.220;2023-01-23T04:25:39;60.10;;;37.10;;
35290;SDS011;21411;50.024;19.220;2023-01-23T04:28:06;58.40;;;36.00;;
35290;SDS011;21411;50.024;19.220;2023-01-23T04:30:32;59.00;;;37.60;;
35290;SDS011;21411;50.024;19.220;2023-01-23T04:32:59;64.40;;;40.20;;
35290;SDS011;21411;50.024;19.220;2023-01-23T04:35:26;62.10;;;39.30;;
35290;SDS011;21411;50.024;19.220;2023-01-23T04:37:53;62.20;;;41.10;;
35290;SDS011;21411;50.024;19.220;2023-01-23T04:40:19;67.60;;;41.40;;
35290;SDS011;21411;50.024;19.220;2023-01-23T04:42:46;60.10;;;39.10;;
35290;SDS011;21411;50.024;19.220;2023-01-23T04:45:13;64.90;;;41.40;;
35290;SDS011;21411;50.024;19.220;2023-01-23T04:47:39;63.40;;;39.80;;
35290;SDS011;21411;50.024;19.220;2023-01-23T04:50:06;56.80;;;37.90;;
35290;SDS011;21411;50.024;19.220;2023-01-23T04:52:33;60.10;;;38.00;;
35290;SDS011;21411;50.024;19.220;2023-01-23T04:55:01;60.70;;;38.00;;
35290;SDS011;21411;50.024;19.220;2023-01-23T04:57:31;58.70;;;37.60;;
35290;SDS011;21411;50.024;19.220;2023-01-23T04:59:57;61.40;;;38.40;;
35290;SDS011;21411;50.024;19.220;2023-01-23T05:02:24;60.20;;;38.70;;
35290;SDS011;21411;50.024;19.220;2023-01-23T05:04:51;63.90;;;41.30;;
35290;SDS011;21411;50.024;19.220;2023-01-23T05:07:18;67.90;;;40.70;;
35290;SDS011;21411;50.024;19.220;2023-01-23T05:09:44;63.30;;;39.90;;
35290;SDS011;21411;50.024;19.220;2023-01-23T05:12:11;60.70;;;40.90;;
35290;SDS011;21411;50.024;19.220;2023-01-23T05:14:37;58.20;;;36.40;;
35290;SDS011;21411;50.024;19.220;2023-01-23T05:17:04;58.90;;;36.60;;
35290;SDS011;21411;50.024;19.220;2023-01-23T05:19:31;55.60;;;36.20;;
35290;SDS011;21411;50.024;19.220;2023-01-23T05:21:58;54.30;;;35.00;;
35290;SDS011;21411;50.024;19.220;2023-01-23T05:24:24;56.20;;;35.70;;
35290;SDS011;21411;50.024;19.220;2023-01-23T05:26:51;50.90;;;34.10;;
35290;SDS011;21411;50.024;19.220;2023-01-23T05:29:18;52.80;;;35.20;;
35290;SDS011;21411;50.024;19.220;2023-01-23T05:31:44;53.50;;;35.10;;
35290;SDS011;21411;50.024;19.220;2023-01-23T05:34:11;50.40;;;35.00;;
35290;SDS011;21411;50.024;19.220;2023-01-23T05:36:38;58.20;;;36.70;;
35290;SDS011;21411;50.024;19.220;2023-01-23T05:39:08;56.10;;;36.70;;
35290;SDS011;21411;50.024;19.220;2023-01-23T05:41:34;55.90;;;36.80;;
35290;SDS011;21411;50.024;19.220;2023-01-23T05:44:01;54.60;;;38.10;;
35290;SDS011;21411;50.024;19.220;2023-01-23T05:46:28;59.50;;;35.00;;
35290;SDS011;21411;50.024;19.220;2023-01-23T05:48:54;53.20;;;35.50;;
35290;SDS011;21411;50.024;19.220;2023-01-23T05:51:21;55.10;;;36.00;;
35290;SDS011;21411;50.024;19.220;2023-01-23T05:53:49;52.60;;;33.20;;
35290;SDS011;21411;50.024;19.220;2023-01-23T05:56:15;53.80;;;33.40;;
35290;SDS011;21411;50.024;19.220;2023-01-23T05:58:42;51.30;;;31.60;;
35290;SDS011;21411;50.024;19.220;2023-01-23T06:01:09;52.20;;;30.50;;
35290;SDS011;21411;50.024;19.220;2023-01-23T06:03:35;54.20;;;30.10;;
35290;SDS011;21411;50.024;19.220;2023-01-23T06:06:02;48.10;;;30.90;;
35290;SDS011;21411;50.024;19.220;2023-01-23T06:08:29;50.80;;;30.20;;
35290;SDS011;21411;50.024;19.220;2023-01-23T06:10:56;44.80;;;27.00;;
35290;SDS011;21411;50.024;19.220;2023-01-23T06:13:24;49.90;;;29.60;;
35290;SDS011;21411;50.024;19.220;2023-01-23T06:15:52;48.50;;;29.00;;
35290;SDS011;21411;50.024;19.220;2023-01-23T06:18:18;48.10;;;27.30;;
35290;SDS011;21411;50.024;19.220;2023-01-23T06:20:46;51.20;;;29.90;;
35290;SDS011;21411;50.024;19.220;2023-01-23T06:23:12;47.80;;;28.40;;
35290;SDS011;21411;50.024;19.220;2023-01-23T06:25:40;49.30;;;27.70;;
35290;SDS011;21411;50.024;19.220;2023-01-23T06:28:07;48.20;;;27.40;;
35290;SDS011;21411;50.024;19.220;2023-01-23T06:30:34;44.00;;;27.10;;
35290;SDS011;21411;50.024;19.220;2023-01-23T06:33:00;46.30;;;28.40;;
35290;SDS011;21411;50.024;19.220;2023-01-23T06:35:27;44.60;;;28.60;;
35290;SDS011;21411;50.024;19.220;2023-01-23T06:37:54;41.20;;;27.30;;
35290;SDS011;21411;50.024;19.220;2023-01-23T06:40:20;50.90;;;32.20;;
35290;SDS011;21411;50.024;19.220;2023-01-23T06:42:47;49.20;;;30.40;;
35290;SDS011;21411;50.024;19.220;2023-01-23T06:45:16;57.70;;;38.00;;
35290;SDS011;21411;50.024;19.220;2023-01-23T06:47:42;62.80;;;41.60;;
35290;SDS011;21411;50.024;19.220;2023-01-23T06:50:09;62.40;;;38.00;;
35290;SDS011;21411;50.024;19.220;2023-01-23T06:52:36;54.60;;;37.90;;
35290;SDS011;21411;50.024;19.220;2023-01-23T06:55:03;50.90;;;31.60;;
35290;SDS011;21411;50.024;19.220;2023-01-23T06:57:30;50.70;;;32.00;;
35290;SDS011;21411;50.024;19.220;2023-01-23T06:59:57;47.60;;;31.10;;
35290;SDS011;21411;50.024;19.220;2023-01-23T07:02:24;52.60;;;32.00;;
35290;SDS011;21411;50.024;19.220;2023-01-23T07:04:51;46.40;;;30.70;;
35290;SDS011;21411;50.024;19.220;2023-01-23T07:07:18;45.90;;;30.20;;
35290;SDS011;21411;50.024;19.220;2023-01-23T07:09:44;47.10;;;31.30;;
35290;SDS011;21411;50.024;19.220;2023-01-23T07:12:11;40.30;;;26.50;;
35290;SDS011;21411;50.024;19.220;2023-01-23T07:14:38;36.30;;;25.30;;
35290;SDS011;21411;50.024;19.220;2023-01-23T07:17:05;33.50;;;22.30;;
35290;SDS011;21411;50.024;19.220;2023-01-23T07:19:32;37.50;;;24.50;;
35290;SDS011;21411;50.024;19.220;2023-01-23T07:21:58;30.60;;;22.50;;
35290;SDS011;21411;50.024;19.220;2023-01-23T07:24:26;35.80;;;24.20;;
35290;SDS011;21411;50.024;19.220;2023-01-23T07:26:55;35.90;;;24.10;;
35290;SDS011;21411;50.024;19.220;2023-01-23T07:29:22;35.30;;;23.80;;
35290;SDS011;21411;50.024;19.220;2023-01-23T07:31:48;40.00;;;25.30;;
35290;SDS011;21411;50.024;19.220;2023-01-23T07:34:15;38.00;;;24.00;;
35290;SDS011;21411;50.024;19.220;2023-01-23T07:36:42;32.60;;;23.00;;
35290;SDS011;21411;50.024;19.220;2023-01-23T07:39:08;29.20;;;20.60;;
35290;SDS011;21411;50.024;19.220;2023-01-23T07:41:35;27.80;;;19.80;;
35290;SDS011;21411;50.024;19.220;2023-01-23T07:44:02;28.50;;;19.40;;
35290;SDS011;21411;50.024;19.220;2023-01-23T07:46:28;31.40;;;21.80;;
35290;SDS011;21411;50.024;19.220;2023-01-23T07:48:55;42.50;;;26.90;;
35290;SDS011;21411;50.024;19.220;2023-01-23T07:51:22;40.50;;;27.00;;
35290;SDS011;21411;50.024;19.220;2023-01-23T07:53:49;46.20;;;28.70;;
35290;SDS011;21411;50.024;19.220;2023-01-23T07:56:15;39.70;;;25.90;;
35290;SDS011;21411;50.024;19.220;2023-01-23T07:58:42;43.30;;;28.70;;
35290;SDS011;21411;50.024;19.220;2023-01-23T08:01:09;42.10;;;27.90;;
35290;SDS011;21411;50.024;19.220;2023-01-23T08:03:37;42.70;;;28.40;;
35290;SDS011;21411;50.024;19.220;2023-01-23T08:06:04;42.50;;;28.40;;
35290;SDS011;21411;50.024;19.220;2023-01-23T08:08:31;44.60;;;29.60;;
35290;SDS011;21411;50.024;19.220;2023-01-23T08:10:59;44.20;;;31.20;;
35290;SDS011;21411;50.024;19.220;2023-01-23T08:13:29;50.90;;;34.40;;
35290;SDS011;21411;50.024;19.220;2023-01-23T08:15:58;57.00;;;36.10;;
35290;SDS011;21411;50.024;19.220;2023-01-23T08:18:25;50.80;;;35.00;;
35290;SDS011;21411;50.024;19.220;2023-01-23T08:20:52;48.40;;;32.00;;
35290;SDS011;21411;50.024;19.220;2023-01-23T08:23:23;51.60;;;35.50;;
35290;SDS011;21411;50.024;19.220;2023-01-23T08:25:51;48.60;;;33.40;;
35290;SDS011;21411;50.024;19.220;2023-01-23T08:28:19;42.80;;;28.90;;
35290;SDS011;21411;50.024;19.220;2023-01-23T08:30:46;43.90;;;29.80;;
35290;SDS011;21411;50.024;19.220;2023-01-23T08:33:13;42.10;;;28.50;;
35290;SDS011;21411;50.024;19.220;2023-01-23T08:35:46;38.70;;;28.30;;
35290;SDS011;21411;50.024;19.220;2023-01-23T08:38:20;41.50;;;27.90;;
35290;SDS011;21411;50.024;19.220;2023-01-23T08:40:48;37.30;;;27.70;;
35290;SDS011;21411;50.024;19.220;2023-01-23T08:43:16;37.00;;;26.40;;
35290;SDS011;21411;50.024;19.220;2023-01-23T08:45:48;36.50;;;24.40;;
35290;SDS011;21411;50.024;19.220;2023-01-23T08:48:19;35.20;;;26.00;;
35290;SDS011;21411;50.024;19.220;2023-01-23T08:50:47;33.90;;;23.90;;
35290;SDS011;21411;50.024;19.220;2023-01-23T08:53:14;37.10;;;26.10;;
35290;SDS011;21411;50.024;19.220;2023-01-23T08:55:42;35.40;;;25.10;;
35290;SDS011;21411;50.024;19.220;2023-01-23T08:58:09;42.00;;;27.60;;
35290;SDS011;21411;50.024;19.220;2023-01-23T09:00:38;36.50;;;25.20;;
35290;SDS011;21411;50.024;19.220;2023-01-23T09:03:06;38.40;;;26.60;;
35290;SDS011;21411;50.024;19.220;2023-01-23T09:05:32;38.70;;;27.70;;
35290;SDS011;21411;50.024;19.220;2023-01-23T09:08:00;41.50;;;29.20;;
35290;SDS011;21411;50.024;19.220;2023-01-23T09:10:26;40.40;;;29.40;;
35290;SDS011;21411;50.024;19.220;2023-01-23T09:12:54;40.50;;;31.10;;
35290;SDS011;21411;50.024;19.220;2023-01-23T09:15:22;41.60;;;31.40;;
35290;SDS011;21411;50.024;19.220;2023-01-23T09:17:49;45.90;;;32.60;;
35290;SDS011;21411;50.024;19.220;2023-01-23T09:20:16;46.30;;;33.80;;
35290;SDS011;21411;50.024;19.220;2023-01-23T09:22:43;41.10;;;32.30;;
35290;SDS011;21411;50.024;19.220;2023-01-23T09:25:10;42.10;;;32.00;;
35290;SDS011;21411;50.024;19.220;2023-01-23T09:27:38;44.70;;;34.80;;
35290;SDS011;21411;50.024;19.220;2023-01-23T09:30:05;44.90;;;33.60;;
35290;SDS011;21411;50.024;19.220;2023-01-23T09:32:32;42.50;;;32.90;;
35290;SDS011;21411;50.024;19.220;2023-01-23T09:34:59;50.90;;;37.20;;
35290;SDS011;21411;50.024;19.220;2023-01-23T09:37:26;46.30;;;36.30;;
35290;SDS011;21411;50.024;19.220;2023-01-23T09:39:54;45.90;;;35.30;;
35290;SDS011;21411;50.024;19.220;2023-01-23T09:42:22;45.80;;;34.30;;
35290;SDS011;21411;50.024;19.220;2023-01-23T09:45:00;42.00;;;33.20;;
35290;SDS011;21411;50.024;19.220;2023-01-23T09:47:35;46.90;;;36.30;;
35290;SDS011;21411;50.024;19.220;2023-01-23T09:50:14;45.80;;;35.90;;
35290;SDS011;21411;50.024;19.220;2023-01-23T09:52:51;43.00;;;33.40;;
35290;SDS011;21411;50.024;19.220;2023-01-23T09:55:40;48.50;;;37.40;;
35290;SDS011;21411;50.024;19.220;2023-01-23T09:58:14;53.90;;;39.50;;
35290;SDS011;21411;50.024;19.220;2023-01-23T10:00:47;50.80;;;39.80;;
35290;SDS011;21411;50.024;19.220;2023-01-23T10:03:17;54.70;;;41.30;;
35290;SDS011;21411;50.024;19.220;2023-01-23T10:16:38;48.40;;;36.60;;
35290;SDS011;21411;50.024;19.220;2023-01-23T10:22:13;48.30;;;37.40;;
35290;SDS011;21411;50.024;19.220;2023-01-23T10:24:52;49.70;;;36.50;;
35290;SDS011;21411;50.024;19.220;2023-01-23T10:27:23;45.90;;;34.50;;
35290;SDS011;21411;50.024;19.220;2023-01-23T10:29:55;47.30;;;35.70;;
35290;SDS011;21411;50.024;19.220;2023-01-23T10:32:28;41.90;;;31.50;;
35290;SDS011;21411;50.024;19.220;2023-01-23T10:35:14;37.30;;;30.20;;
35290;SDS011;21411;50.024;19.220;2023-01-23T10:40:48;39.80;;;31.40;;
35290;SDS011;21411;50.024;19.220;2023-01-23T10:43:33;41.70;;;33.90;;
35290;SDS011;21411;50.024;19.220;2023-01-23T10:46:01;44.90;;;34.80;;
35290;SDS011;21411;50.024;19.220;2023-01-23T10:48:51;41.30;;;34.90;;
35290;SDS011;21411;50.024;19.220;2023-01-23T10:59:26;33.60;;;29.70;;
35290;SDS011;21411;50.024;19.220;2023-01-23T11:01:54;34.10;;;29.70;;
35290;SDS011;21411;50.024;19.220;2023-01-23T11:04:23;33.20;;;29.00;;
35290;SDS011;21411;50.024;19.220;2023-01-23T11:06:59;36.60;;;30.80;;
35290;SDS011;21411;50.024;19.220;2023-01-23T11:09:27;36.60;;;31.20;;
35290;SDS011;21411;50.024;19.220;2023-01-23T11:12:03;39.20;;;31.50;;
35290;SDS011;21411;50.024;19.220;2023-01-23T11:14:32;40.80;;;32.40;;
35290;SDS011;21411;50.024;19.220;2023-01-23T11:19:51;38.30;;;32.40;;
35290;SDS011;21411;50.024;19.220;2023-01-23T11:25:17;39.10;;;32.50;;
35290;SDS011;21411;50.024;19.220;2023-01-23T11:28:00;39.20;;;32.80;;
35290;SDS011;21411;50.024;19.220;2023-01-23T11:36:35;35.00;;;30.50;;
35290;SDS011;21411;50.024;19.220;2023-01-23T11:39:21;42.80;;;34.20;;
35290;SDS011;21411;50.024;19.220;2023-01-23T11:41:59;39.80;;;32.70;;
35290;SDS011;21411;50.024;19.220;2023-01-23T11:44:27;40.70;;;34.10;;
35290;SDS011;21411;50.024;19.220;2023-01-23T11:47:08;36.30;;;32.40;;
35290;SDS011;21411;50.024;19.220;2023-01-23T11:55:40;39.20;;;30.20;;
35290;SDS011;21411;50.024;19.220;2023-01-23T12:09:37;41.70;;;31.30;;
35290;SDS011;21411;50.024;19.220;2023-01-23T12:15:08;49.10;;;37.50;;
35290;SDS011;21411;50.024;19.220;2023-01-23T12:20:44;39.10;;;31.90;;
35290;SDS011;21411;50.024;19.220;2023-01-23T12:23:21;38.10;;;30.90;;
35290;SDS011;21411;50.024;19.220;2023-01-23T12:43:02;45.60;;;32.30;;
35290;SDS011;21411;50.024;19.220;2023-01-23T12:45:36;47.30;;;34.80;;
35290;SDS011;21411;50.024;19.220;2023-01-23T12:48:13;50.40;;;35.20;;
35290;SDS011;21411;50.024;19.220;2023-01-23T12:51:04;49.80;;;36.90;;
35290;SDS011;21411;50.024;19.220;2023-01-23T12:53:36;44.40;;;35.10;;
35290;SDS011;21411;50.024;19.220;2023-01-23T12:56:09;52.10;;;33.30;;
35290;SDS011;21411;50.024;19.220;2023-01-23T12:58:46;44.60;;;31.20;;
35290;SDS011;21411;50.024;19.220;2023-01-23T13:07:23;42.60;;;32.10;;
35290;SDS011;21411;50.024;19.220;2023-01-23T13:13:31;46.20;;;33.50;;
35290;SDS011;21411;50.024;19.220;2023-01-23T13:16:13;44.10;;;32.80;;
35290;SDS011;21411;50.024;19.220;2023-01-23T13:18:52;48.90;;;35.30;;
35290;SDS011;21411;50.024;19.220;2023-01-23T13:22:01;48.20;;;34.20;;
35290;SDS011;21411;50.024;19.220;2023-01-23T13:32:52;52.10;;;37.90;;
35290;SDS011;21411;50.024;19.220;2023-01-23T13:41:26;47.90;;;36.70;;
35290;SDS011;21411;50.024;19.220;2023-01-23T13:51:54;55.90;;;37.40;;
35290;SDS011;21411;50.024;19.220;2023-01-23T13:54:25;55.50;;;36.80;;
35290;SDS011;21411;50.024;19.220;2023-01-23T13:57:13;62.30;;;39.10;;
35290;SDS011;21411;50.024;19.220;2023-01-23T13:59:46;66.80;;;42.90;;
35290;SDS011;21411;50.024;19.220;2023-01-23T14:02:29;73.00;;;42.40;;
35290;SDS011;21411;50.024;19.220;2023-01-23T14:05:30;71.60;;;48.60;;
35290;SDS011;21411;50.024;19.220;2023-01-23T14:08:01;75.90;;;49.10;;
35290;SDS011;21411;50.024;19.220;2023-01-23T14:10:32;74.80;;;50.50;;
35290;SDS011;21411;50.024;19.220;2023-01-23T14:13:01;68.90;;;44.70;;
35290;SDS011;21411;50.024;19.220;2023-01-23T14:15:31;71.00;;;44.40;;
35290;SDS011;21411;50.024;19.220;2023-01-23T14:18:33;69.20;;;43.30;;
35290;SDS011;21411;50.024;19.220;2023-01-23T14:21:15;78.70;;;44.80;;
35290;SDS011;21411;50.024;19.220;2023-01-23T14:23:42;78.60;;;45.10;;
35290;SDS011;21411;50.024;19.220;2023-01-23T14:26:12;74.90;;;45.30;;
35290;SDS011;21411;50.024;19.220;2023-01-23T14:28:54;68.20;;;43.30;;
35290;SDS011;21411;50.024;19.220;2023-01-23T14:31:29;68.50;;;43.20;;
35290;SDS011;21411;50.024;19.220;2023-01-23T14:33:59;68.30;;;43.20;;
35290;SDS011;21411;50.024;19.220;2023-01-23T14:36:34;66.60;;;44.10;;
35290;SDS011;21411;50.024;19.220;2023-01-23T14:39:03;70.70;;;44.80;;
35290;SDS011;21411;50.024;19.220;2023-01-23T14:41:31;73.50;;;46.40;;
35290;SDS011;21411;50.024;19.220;2023-01-23T14:44:04;76.00;;;48.70;;
35290;SDS011;21411;50.024;19.220;2023-01-23T14:46:37;76.70;;;48.10;;
35290;SDS011;21411;50.024;19.220;2023-01-23T14:49:08;71.20;;;46.20;;
35290;SDS011;21411;50.024;19.220;2023-01-23T14:51:36;74.80;;;47.00;;
35290;SDS011;21411;50.024;19.220;2023-01-23T14:54:04;73.10;;;47.30;;
35290;SDS011;21411;50.024;19.220;2023-01-23T14:56:43;74.20;;;45.30;;
35290;SDS011;21411;50.024;19.220;2023-01-23T14:59:18;78.30;;;49.10;;
35290;SDS011;21411;50.024;19.220;2023-01-23T15:01:54;82.30;;;51.50;;
35290;SDS011;21411;50.024;19.220;2023-01-23T15:04:23;77.50;;;53.60;;
35290;SDS011;21411;50.024;19.220;2023-01-23T15:06:55;84.60;;;54.50;;
35290;SDS011;21411;50.024;19.220;2023-01-23T15:09:31;88.60;;;60.00;;
35290;SDS011;21411;50.024;19.220;2023-01-23T15:12:06;73.20;;;51.40;;
35290;SDS011;21411;50.024;19.220;2023-01-23T15:14:40;53.10;;;36.80;;
35290;SDS011;21411;50.024;19.220;2023-01-23T15:17:12;73.10;;;51.10;;
35290;SDS011;21411;50.024;19.220;2023-01-23T15:19:42;76.10;;;48.90;;
35290;SDS011;21411;50.024;19.220;2023-01-23T15:24:50;72.70;;;47.90;;
35290;SDS011;21411;50.024;19.220;2023-01-23T15:30:26;75.90;;;45.30;;
35290;SDS011;21411;50.024;19.220;2023-01-23T15:32:57;71.10;;;47.60;;
35290;SDS011;21411;50.024;19.220;2023-01-23T15:35:30;104.30;;;69.10;;
35290;SDS011;21411;50.024;19.220;2023-01-23T15:38:01;101.60;;;65.30;;
35290;SDS011;21411;50.024;19.220;2023-01-23T15:40:32;51.10;;;35.40;;
35290;SDS011;21411;50.024;19.220;2023-01-23T15:43:14;63.10;;;42.90;;
35290;SDS011;21411;50.024;19.220;2023-01-23T15:45:44;36.60;;;26.70;;
35290;SDS011;21411;50.024;19.220;2023-01-23T15:48:11;32.70;;;26.30;;
35290;SDS011;21411;50.024;19.220;2023-01-23T15:50:38;34.50;;;27.00;;
35290;SDS011;21411;50.024;19.220;2023-01-23T15:53:09;33.80;;;25.40;;
35290;SDS011;21411;50.024;19.220;2023-01-23T15:55:38;37.30;;;27.70;;
35290;SDS011;21411;50.024;19.220;2023-01-23T15:58:05;37.20;;;28.40;;
35290;SDS011;21411;50.024;19.220;2023-01-23T16:00:32;38.10;;;30.10;;
35290;SDS011;21411;50.024;19.220;2023-01-23T16:02:58;40.50;;;30.90;;
35290;SDS011;21411;50.024;19.220;2023-01-23T16:05:27;38.80;;;29.20;;
35290;SDS011;21411;50.024;19.220;2023-01-23T16:07:57;38.90;;;28.90;;
35290;SDS011;21411;50.024;19.220;2023-01-23T16:10:29;34.90;;;27.30;;
35290;SDS011;21411;50.024;19.220;2023-01-23T16:12:59;38.40;;;30.00;;
35290;SDS011;21411;50.024;19.220;2023-01-23T16:15:27;38.50;;;29.90;;
35290;SDS011;21411;50.024;19.220;2023-01-23T16:17:55;38.80;;;30.40;;
35290;SDS011;21411;50.024;19.220;2023-01-23T16:20:26;39.80;;;31.30;;
35290;SDS011;21411;50.024;19.220;2023-01-23T16:23:03;37.40;;;29.10;;
35290;SDS011;21411;50.024;19.220;2023-01-23T16:25:47;39.80;;;29.50;;
35290;SDS011;21411;50.024;19.220;2023-01-23T16:28:15;40.00;;;30.40;;
35290;SDS011;21411;50.024;19.220;2023-01-23T16:30:44;36.90;;;31.20;;